Resums METAR propers

 

LEGE - Gerona/Costa Bra, Spain
DistÓncia des de l'estaciˇ: S 12km
Actualitzaciˇ: 07/10/2022 18:00
Tapat
Tapat
 Vent del NNO
Vent: NNO 6 km/h
Temperatura: 66°F , 19°C
Rosada: 64°F , 18°C
Humitat: 94%
Bar˛metre: 1021 hPa
Nuvolositat: Tapat
Visibilitat: 10 km
Detalls nuvolositat: Parcialment cobert 1500 ft
Molt cobert 3000 ft
Tapat 4500 ft
2022/10/07 16:00 LEGE 071600Z 34003KT 240V050 9999 SCT015 BKN030 OVC045 19/18 Q1021 RERA